sensor_id;sensor_type;location;lat;lon;timestamp;temperature;humidity
40636;DHT22;26642;55.766;37.828;2023-09-12T08:39:51;23.50;67.40
40636;DHT22;26642;55.766;37.828;2023-09-12T08:42:22;23.60;72.20
40636;DHT22;26642;55.766;37.828;2023-09-12T08:44:49;23.50;68.00
40636;DHT22;26642;55.766;37.828;2023-09-12T08:47:15;23.40;56.60
40636;DHT22;26642;55.766;37.828;2023-09-12T08:49:43;23.40;57.10
40636;DHT22;26642;55.766;37.828;2023-09-12T08:52:09;23.40;57.10
40636;DHT22;26642;55.766;37.828;2023-09-12T08:54:35;23.40;56.90
40636;DHT22;26642;55.766;37.828;2023-09-12T08:57:01;23.40;56.30
40636;DHT22;26642;55.766;37.828;2023-09-12T08:59:30;23.30;57.00
40636;DHT22;26642;55.766;37.828;2023-09-12T09:01:57;23.30;55.90
40636;DHT22;26642;55.766;37.828;2023-09-12T09:04:24;23.20;56.70
40636;DHT22;26642;55.766;37.828;2023-09-12T09:06:54;23.20;57.20
40636;DHT22;26642;55.766;37.828;2023-09-12T09:09:22;23.10;58.30
40636;DHT22;26642;55.766;37.828;2023-09-12T09:11:48;23.10;58.70
40636;DHT22;26642;55.766;37.828;2023-09-12T09:14:13;23.10;58.80
40636;DHT22;26642;55.766;37.828;2023-09-12T09:16:39;23.10;58.70
40636;DHT22;26642;55.766;37.828;2023-09-12T09:19:05;23.10;58.80
40636;DHT22;26642;55.766;37.828;2023-09-12T09:21:36;23.10;59.20
40636;DHT22;26642;55.766;37.828;2023-09-12T09:24:05;23.10;59.50
40636;DHT22;26642;55.766;37.828;2023-09-12T09:29:15;23.20;60.60
40636;DHT22;26642;55.766;37.828;2023-09-12T09:31:43;23.10;60.30
40636;DHT22;26642;55.766;37.828;2023-09-12T09:34:20;23.20;60.10
40636;DHT22;26642;55.766;37.828;2023-09-12T09:36:51;23.20;59.80
40636;DHT22;26642;55.766;37.828;2023-09-12T09:39:19;23.10;59.70
40636;DHT22;26642;55.766;37.828;2023-09-12T09:41:49;23.10;59.50
40636;DHT22;26642;55.766;37.828;2023-09-12T09:44:15;23.10;59.70
40636;DHT22;26642;55.766;37.828;2023-09-12T09:46:45;23.10;60.20
40636;DHT22;26642;55.766;37.828;2023-09-12T09:49:15;23.10;60.50
40636;DHT22;26642;55.766;37.828;2023-09-12T09:51:41;23.10;60.80
40636;DHT22;26642;55.766;37.828;2023-09-12T09:54:12;23.10;60.60
40636;DHT22;26642;55.766;37.828;2023-09-12T09:56:48;23.10;61.30
40636;DHT22;26642;55.766;37.828;2023-09-12T09:59:16;23.10;60.70
40636;DHT22;26642;55.766;37.828;2023-09-12T10:01:44;23.10;60.50
40636;DHT22;26642;55.766;37.828;2023-09-12T10:04:11;23.10;60.40
40636;DHT22;26642;55.766;37.828;2023-09-12T10:06:37;23.00;60.60
40636;DHT22;26642;55.766;37.828;2023-09-12T10:09:14;23.00;61.00
40636;DHT22;26642;55.766;37.828;2023-09-12T10:11:43;23.00;61.30
40636;DHT22;26642;55.766;37.828;2023-09-12T10:14:09;23.00;61.40
40636;DHT22;26642;55.766;37.828;2023-09-12T10:16:45;23.00;61.00
40636;DHT22;26642;55.766;37.828;2023-09-12T10:19:34;23.00;61.60
40636;DHT22;26642;55.766;37.828;2023-09-12T10:22:39;23.00;61.20
40636;DHT22;26642;55.766;37.828;2023-09-12T10:24:57;23.00;60.70
40636;DHT22;26642;55.766;37.828;2023-09-12T10:27:25;23.00;60.90
40636;DHT22;26642;55.766;37.828;2023-09-12T10:29:52;23.00;61.40
40636;DHT22;26642;55.766;37.828;2023-09-12T10:32:19;23.00;61.80
40636;DHT22;26642;55.766;37.828;2023-09-12T10:34:46;23.00;61.70
40636;DHT22;26642;55.766;37.828;2023-09-12T10:37:18;23.00;61.80
40636;DHT22;26642;55.766;37.828;2023-09-12T10:39:46;23.10;61.80
40636;DHT22;26642;55.766;37.828;2023-09-12T10:42:13;23.10;61.90
40636;DHT22;26642;55.766;37.828;2023-09-12T10:44:39;23.10;62.10
40636;DHT22;26642;55.766;37.828;2023-09-12T10:47:05;23.10;62.00
40636;DHT22;26642;55.766;37.828;2023-09-12T10:49:32;23.10;61.80
40636;DHT22;26642;55.766;37.828;2023-09-12T10:51:58;23.10;61.30
40636;DHT22;26642;55.766;37.828;2023-09-12T10:54:35;23.00;60.30
40636;DHT22;26642;55.766;37.828;2023-09-12T10:57:08;23.00;60.30
40636;DHT22;26642;55.766;37.828;2023-09-12T10:59:36;23.00;60.50
40636;DHT22;26642;55.766;37.828;2023-09-12T11:04:56;23.10;61.40
40636;DHT22;26642;55.766;37.828;2023-09-12T11:12:40;23.10;62.50
40636;DHT22;26642;55.766;37.828;2023-09-12T11:15:07;23.10;62.10
40636;DHT22;26642;55.766;37.828;2023-09-12T11:17:38;23.10;62.00
40636;DHT22;26642;55.766;37.828;2023-09-12T11:20:04;23.10;61.90
40636;DHT22;26642;55.766;37.828;2023-09-12T11:22:43;23.10;61.30
40636;DHT22;26642;55.766;37.828;2023-09-12T11:25:20;23.10;60.90
40636;DHT22;26642;55.766;37.828;2023-09-12T11:30:22;23.10;60.80
40636;DHT22;26642;55.766;37.828;2023-09-12T11:32:50;23.00;60.70
40636;DHT22;26642;55.766;37.828;2023-09-12T11:35:25;23.10;60.30
40636;DHT22;26642;55.766;37.828;2023-09-12T11:37:58;23.10;60.30
40636;DHT22;26642;55.766;37.828;2023-09-12T11:40:45;23.10;60.20
40636;DHT22;26642;55.766;37.828;2023-09-12T11:43:25;23.10;59.80
40636;DHT22;26642;55.766;37.828;2023-09-12T11:45:52;23.00;59.70
40636;DHT22;26642;55.766;37.828;2023-09-12T11:48:20;23.00;59.60
40636;DHT22;26642;55.766;37.828;2023-09-12T11:50:53;23.00;59.90
40636;DHT22;26642;55.766;37.828;2023-09-12T11:53:22;23.00;59.80
40636;DHT22;26642;55.766;37.828;2023-09-12T11:55:53;23.00;59.50
40636;DHT22;26642;55.766;37.828;2023-09-12T11:58:20;23.00;58.90
40636;DHT22;26642;55.766;37.828;2023-09-12T12:00:52;23.00;58.70
40636;DHT22;26642;55.766;37.828;2023-09-12T12:03:21;23.00;58.80
40636;DHT22;26642;55.766;37.828;2023-09-12T12:05:47;22.90;58.30
40636;DHT22;26642;55.766;37.828;2023-09-12T12:08:15;22.90;58.50
40636;DHT22;26642;55.766;37.828;2023-09-12T12:10:41;22.90;58.60
40636;DHT22;26642;55.766;37.828;2023-09-12T12:13:17;22.90;58.70
40636;DHT22;26642;55.766;37.828;2023-09-12T12:15:43;22.90;59.10
40636;DHT22;26642;55.766;37.828;2023-09-12T12:18:09;22.90;58.80
40636;DHT22;26642;55.766;37.828;2023-09-12T12:20:35;22.90;58.80
40636;DHT22;26642;55.766;37.828;2023-09-12T12:23:01;22.90;58.80
40636;DHT22;26642;55.766;37.828;2023-09-12T12:25:32;22.90;58.40
40636;DHT22;26642;55.766;37.828;2023-09-12T12:28:00;22.90;58.30
40636;DHT22;26642;55.766;37.828;2023-09-12T12:30:30;22.90;58.20
40636;DHT22;26642;55.766;37.828;2023-09-12T12:32:57;22.90;58.00
40636;DHT22;26642;55.766;37.828;2023-09-12T12:35:23;22.90;57.80
40636;DHT22;26642;55.766;37.828;2023-09-12T12:37:51;22.90;57.80
40636;DHT22;26642;55.766;37.828;2023-09-12T12:40:17;22.90;57.70
40636;DHT22;26642;55.766;37.828;2023-09-12T12:42:44;22.90;58.00
40636;DHT22;26642;55.766;37.828;2023-09-12T12:45:12;22.90;58.00
40636;DHT22;26642;55.766;37.828;2023-09-12T12:47:39;22.80;57.90
40636;DHT22;26642;55.766;37.828;2023-09-12T12:50:12;22.80;58.20
40636;DHT22;26642;55.766;37.828;2023-09-12T12:52:39;22.80;58.10
40636;DHT22;26642;55.766;37.828;2023-09-12T12:55:10;22.80;58.00
40636;DHT22;26642;55.766;37.828;2023-09-12T12:57:41;22.80;57.60
40636;DHT22;26642;55.766;37.828;2023-09-12T13:00:17;22.80;57.60
40636;DHT22;26642;55.766;37.828;2023-09-12T13:02:45;22.80;57.60
40636;DHT22;26642;55.766;37.828;2023-09-12T13:05:24;22.80;57.60
40636;DHT22;26642;55.766;37.828;2023-09-12T13:07:50;22.80;57.70
40636;DHT22;26642;55.766;37.828;2023-09-12T13:10:17;22.80;57.80
40636;DHT22;26642;55.766;37.828;2023-09-12T13:12:43;22.80;57.60
40636;DHT22;26642;55.766;37.828;2023-09-12T13:15:12;22.80;57.60
40636;DHT22;26642;55.766;37.828;2023-09-12T13:17:38;22.80;57.60
40636;DHT22;26642;55.766;37.828;2023-09-12T13:20:05;22.80;57.50
40636;DHT22;26642;55.766;37.828;2023-09-12T13:22:34;22.80;57.60
40636;DHT22;26642;55.766;37.828;2023-09-12T13:25:01;22.80;57.50
40636;DHT22;26642;55.766;37.828;2023-09-12T13:27:28;22.80;57.80
40636;DHT22;26642;55.766;37.828;2023-09-12T13:29:54;22.80;57.90
40636;DHT22;26642;55.766;37.828;2023-09-12T13:32:20;22.80;57.90
40636;DHT22;26642;55.766;37.828;2023-09-12T13:34:46;22.80;57.70
40636;DHT22;26642;55.766;37.828;2023-09-12T13:37:12;22.80;57.60
40636;DHT22;26642;55.766;37.828;2023-09-12T13:39:42;22.80;57.80
40636;DHT22;26642;55.766;37.828;2023-09-12T13:42:18;22.80;57.40
40636;DHT22;26642;55.766;37.828;2023-09-12T13:44:48;22.70;57.60
40636;DHT22;26642;55.766;37.828;2023-09-12T13:47:14;22.80;57.70
40636;DHT22;26642;55.766;37.828;2023-09-12T13:49:50;22.80;57.60
40636;DHT22;26642;55.766;37.828;2023-09-12T13:52:20;22.80;57.60
40636;DHT22;26642;55.766;37.828;2023-09-12T13:54:46;22.80;57.10
40636;DHT22;26642;55.766;37.828;2023-09-12T13:57:12;22.80;57.20
40636;DHT22;26642;55.766;37.828;2023-09-12T13:59:39;22.70;56.70
40636;DHT22;26642;55.766;37.828;2023-09-12T14:02:05;22.80;56.80
40636;DHT22;26642;55.766;37.828;2023-09-12T14:04:31;22.80;56.80
40636;DHT22;26642;55.766;37.828;2023-09-12T14:06:56;22.70;56.60
40636;DHT22;26642;55.766;37.828;2023-09-12T14:09:22;22.70;56.90
40636;DHT22;26642;55.766;37.828;2023-09-12T14:11:48;22.70;56.90
40636;DHT22;26642;55.766;37.828;2023-09-12T14:14:15;22.80;56.80
40636;DHT22;26642;55.766;37.828;2023-09-12T14:16:43;22.70;56.50
40636;DHT22;26642;55.766;37.828;2023-09-12T14:19:10;22.70;56.60
40636;DHT22;26642;55.766;37.828;2023-09-12T14:21:36;22.70;56.80
40636;DHT22;26642;55.766;37.828;2023-09-12T14:24:02;22.80;57.00
40636;DHT22;26642;55.766;37.828;2023-09-12T14:26:28;22.70;56.80
40636;DHT22;26642;55.766;37.828;2023-09-12T14:28:54;22.70;57.10
40636;DHT22;26642;55.766;37.828;2023-09-12T14:31:22;22.70;57.20
40636;DHT22;26642;55.766;37.828;2023-09-12T14:33:49;22.80;57.40
40636;DHT22;26642;55.766;37.828;2023-09-12T14:36:15;22.80;57.40
40636;DHT22;26642;55.766;37.828;2023-09-12T14:38:41;22.80;56.80
40636;DHT22;26642;55.766;37.828;2023-09-12T14:41:11;22.80;56.90
40636;DHT22;26642;55.766;37.828;2023-09-12T14:43:37;22.80;57.00
40636;DHT22;26642;55.766;37.828;2023-09-12T14:46:03;22.80;56.90
40636;DHT22;26642;55.766;37.828;2023-09-12T14:48:31;22.80;56.70
40636;DHT22;26642;55.766;37.828;2023-09-12T14:50:59;22.80;56.60
40636;DHT22;26642;55.766;37.828;2023-09-12T14:53:26;22.80;56.80
40636;DHT22;26642;55.766;37.828;2023-09-12T14:55:53;22.80;56.80
40636;DHT22;26642;55.766;37.828;2023-09-12T14:58:19;22.70;56.80
40636;DHT22;26642;55.766;37.828;2023-09-12T15:00:45;22.70;56.90
40636;DHT22;26642;55.766;37.828;2023-09-12T15:03:11;22.80;57.00
40636;DHT22;26642;55.766;37.828;2023-09-12T15:05:37;22.70;56.80
40636;DHT22;26642;55.766;37.828;2023-09-12T15:08:03;22.70;56.90
40636;DHT22;26642;55.766;37.828;2023-09-12T15:10:30;22.70;56.90
40636;DHT22;26642;55.766;37.828;2023-09-12T15:12:56;22.70;56.40
40636;DHT22;26642;55.766;37.828;2023-09-12T15:15:22;22.70;56.50
40636;DHT22;26642;55.766;37.828;2023-09-12T15:17:48;22.70;56.60
40636;DHT22;26642;55.766;37.828;2023-09-12T15:20:14;22.70;56.60
40636;DHT22;26642;55.766;37.828;2023-09-12T15:22:40;22.70;56.60
40636;DHT22;26642;55.766;37.828;2023-09-12T15:25:09;22.60;56.60
40636;DHT22;26642;55.766;37.828;2023-09-12T15:27:35;22.60;56.80
40636;DHT22;26642;55.766;37.828;2023-09-12T15:30:01;22.60;56.70
40636;DHT22;26642;55.766;37.828;2023-09-12T15:32:27;22.60;56.70
40636;DHT22;26642;55.766;37.828;2023-09-12T15:34:53;22.60;56.90
40636;DHT22;26642;55.766;37.828;2023-09-12T15:37:19;22.60;57.10
40636;DHT22;26642;55.766;37.828;2023-09-12T15:39:45;22.60;57.20
40636;DHT22;26642;55.766;37.828;2023-09-12T15:42:11;22.60;57.50
40636;DHT22;26642;55.766;37.828;2023-09-12T15:44:37;22.50;57.20
40636;DHT22;26642;55.766;37.828;2023-09-12T15:47:03;22.60;57.30
40636;DHT22;26642;55.766;37.828;2023-09-12T15:49:32;22.50;57.30
40636;DHT22;26642;55.766;37.828;2023-09-12T15:51:58;22.50;57.40
40636;DHT22;26642;55.766;37.828;2023-09-12T15:54:24;22.50;57.40
40636;DHT22;26642;55.766;37.828;2023-09-12T15:56:50;22.50;57.60
40636;DHT22;26642;55.766;37.828;2023-09-12T15:59:16;22.50;57.70
40636;DHT22;26642;55.766;37.828;2023-09-12T16:01:42;22.50;57.50
40636;DHT22;26642;55.766;37.828;2023-09-12T16:04:08;22.50;57.60
40636;DHT22;26642;55.766;37.828;2023-09-12T16:06:34;22.50;57.60
40636;DHT22;26642;55.766;37.828;2023-09-12T16:09:00;22.50;57.50
40636;DHT22;26642;55.766;37.828;2023-09-12T16:11:26;22.40;57.40
40636;DHT22;26642;55.766;37.828;2023-09-12T16:13:52;22.40;57.50
40636;DHT22;26642;55.766;37.828;2023-09-12T16:16:19;22.40;57.60
40636;DHT22;26642;55.766;37.828;2023-09-12T16:18:45;22.30;57.70
40636;DHT22;26642;55.766;37.828;2023-09-12T16:21:11;22.30;57.90
40636;DHT22;26642;55.766;37.828;2023-09-12T16:23:37;22.30;58.00
40636;DHT22;26642;55.766;37.828;2023-09-12T16:26:03;22.30;58.10
40636;DHT22;26642;55.766;37.828;2023-09-12T16:28:29;22.30;58.20
40636;DHT22;26642;55.766;37.828;2023-09-12T16:30:55;22.20;58.10
40636;DHT22;26642;55.766;37.828;2023-09-12T16:33:21;22.30;58.10
40636;DHT22;26642;55.766;37.828;2023-09-12T16:35:48;22.30;58.10
40636;DHT22;26642;55.766;37.828;2023-09-12T16:38:15;22.20;58.20
40636;DHT22;26642;55.766;37.828;2023-09-12T16:40:41;22.20;58.20
40636;DHT22;26642;55.766;37.828;2023-09-12T16:43:07;22.20;58.30
40636;DHT22;26642;55.766;37.828;2023-09-12T16:45:33;22.20;58.20
40636;DHT22;26642;55.766;37.828;2023-09-12T16:47:59;22.20;58.40
40636;DHT22;26642;55.766;37.828;2023-09-12T16:50:26;22.20;58.00
40636;DHT22;26642;55.766;37.828;2023-09-12T16:52:52;22.20;57.70
40636;DHT22;26642;55.766;37.828;2023-09-12T16:55:18;22.20;57.30
40636;DHT22;26642;55.766;37.828;2023-09-12T16:57:44;22.10;57.20
40636;DHT22;26642;55.766;37.828;2023-09-12T17:00:11;22.10;57.30
40636;DHT22;26642;55.766;37.828;2023-09-12T17:02:38;22.10;57.30
40636;DHT22;26642;55.766;37.828;2023-09-12T17:05:05;22.00;57.40
40636;DHT22;26642;55.766;37.828;2023-09-12T17:07:31;22.00;57.40
40636;DHT22;26642;55.766;37.828;2023-09-12T17:09:57;21.90;57.30
40636;DHT22;26642;55.766;37.828;2023-09-12T17:12:24;21.90;57.50
40636;DHT22;26642;55.766;37.828;2023-09-12T17:14:50;21.80;57.60
40636;DHT22;26642;55.766;37.828;2023-09-12T17:17:16;21.80;57.60
40636;DHT22;26642;55.766;37.828;2023-09-12T17:19:42;21.70;57.70
40636;DHT22;26642;55.766;37.828;2023-09-12T17:22:11;21.70;57.80
40636;DHT22;26642;55.766;37.828;2023-09-12T17:24:38;21.70;58.10
40636;DHT22;26642;55.766;37.828;2023-09-12T17:27:04;21.60;58.40
40636;DHT22;26642;55.766;37.828;2023-09-12T17:29:30;21.60;58.90
40636;DHT22;26642;55.766;37.828;2023-09-12T17:31:56;21.50;59.60
40636;DHT22;26642;55.766;37.828;2023-09-12T17:34:42;21.50;59.90
40636;DHT22;26642;55.766;37.828;2023-09-12T17:37:10;21.40;60.00
40636;DHT22;26642;55.766;37.828;2023-09-12T17:39:36;21.40;60.30
40636;DHT22;26642;55.766;37.828;2023-09-12T17:42:03;21.30;60.40
40636;DHT22;26642;55.766;37.828;2023-09-12T17:44:30;21.20;60.40
40636;DHT22;26642;55.766;37.828;2023-09-12T17:46:55;21.20;60.20
40636;DHT22;26642;55.766;37.828;2023-09-12T17:49:21;21.20;60.20
40636;DHT22;26642;55.766;37.828;2023-09-12T17:51:47;21.20;60.40
40636;DHT22;26642;55.766;37.828;2023-09-12T17:54:13;21.10;60.60
40636;DHT22;26642;55.766;37.828;2023-09-12T17:56:40;21.10;60.80
40636;DHT22;26642;55.766;37.828;2023-09-12T17:59:07;21.10;61.00
40636;DHT22;26642;55.766;37.828;2023-09-12T18:01:33;21.00;61.40
40636;DHT22;26642;55.766;37.828;2023-09-12T18:03:59;21.00;61.30
40636;DHT22;26642;55.766;37.828;2023-09-12T18:06:25;21.00;61.30
40636;DHT22;26642;55.766;37.828;2023-09-12T18:08:52;20.90;60.80
40636;DHT22;26642;55.766;37.828;2023-09-12T18:11:18;20.90;60.60
40636;DHT22;26642;55.766;37.828;2023-09-12T18:13:44;20.80;60.40
40636;DHT22;26642;55.766;37.828;2023-09-12T18:16:12;20.80;60.80
40636;DHT22;26642;55.766;37.828;2023-09-12T18:18:40;20.80;60.80
40636;DHT22;26642;55.766;37.828;2023-09-12T18:21:06;20.80;61.20
40636;DHT22;26642;55.766;37.828;2023-09-12T18:23:32;20.70;61.00
40636;DHT22;26642;55.766;37.828;2023-09-12T18:26:01;20.70;61.40
40636;DHT22;26642;55.766;37.828;2023-09-12T18:28:39;20.70;63.30
40636;DHT22;26642;55.766;37.828;2023-09-12T18:31:10;20.60;63.00
40636;DHT22;26642;55.766;37.828;2023-09-12T18:33:37;20.70;62.90
40636;DHT22;26642;55.766;37.828;2023-09-12T18:36:07;20.60;62.30
40636;DHT22;26642;55.766;37.828;2023-09-12T18:38:43;20.60;62.10
40636;DHT22;26642;55.766;37.828;2023-09-12T18:41:10;20.60;62.10
40636;DHT22;26642;55.766;37.828;2023-09-12T18:43:37;20.60;65.80
40636;DHT22;26642;55.766;37.828;2023-09-12T18:46:06;20.60;66.70
40636;DHT22;26642;55.766;37.828;2023-09-12T18:48:32;20.60;65.80
40636;DHT22;26642;55.766;37.828;2023-09-12T18:50:58;20.70;64.90
40636;DHT22;26642;55.766;37.828;2023-09-12T18:53:24;20.60;64.40
40636;DHT22;26642;55.766;37.828;2023-09-12T18:55:50;20.60;64.00
40636;DHT22;26642;55.766;37.828;2023-09-12T18:58:17;20.60;63.70
40636;DHT22;26642;55.766;37.828;2023-09-12T19:00:43;20.60;63.30
40636;DHT22;26642;55.766;37.828;2023-09-12T19:03:11;20.60;63.20
40636;DHT22;26642;55.766;37.828;2023-09-12T19:05:43;20.60;63.30
40636;DHT22;26642;55.766;37.828;2023-09-12T19:08:10;20.50;63.40
40636;DHT22;26642;55.766;37.828;2023-09-12T19:10:36;20.40;63.40
40636;DHT22;26642;55.766;37.828;2023-09-12T19:13:03;20.40;63.60
40636;DHT22;26642;55.766;37.828;2023-09-12T19:15:30;20.30;63.60
40636;DHT22;26642;55.766;37.828;2023-09-12T19:17:56;20.30;63.80
40636;DHT22;26642;55.766;37.828;2023-09-12T19:20:22;20.30;64.00
40636;DHT22;26642;55.766;37.828;2023-09-12T19:22:48;20.20;64.10
40636;DHT22;26642;55.766;37.828;2023-09-12T19:25:14;20.20;64.40
40636;DHT22;26642;55.766;37.828;2023-09-12T19:27:40;20.20;64.50
40636;DHT22;26642;55.766;37.828;2023-09-12T19:30:09;20.10;64.60
40636;DHT22;26642;55.766;37.828;2023-09-12T19:32:38;20.10;64.70
40636;DHT22;26642;55.766;37.828;2023-09-12T19:35:08;20.00;64.80
40636;DHT22;26642;55.766;37.828;2023-09-12T19:37:38;20.00;66.60
40636;DHT22;26642;55.766;37.828;2023-09-12T19:40:09;20.00;67.70
40636;DHT22;26642;55.766;37.828;2023-09-12T19:42:37;19.90;66.90
40636;DHT22;26642;55.766;37.828;2023-09-12T19:45:05;20.00;66.30
40636;DHT22;26642;55.766;37.828;2023-09-12T19:47:31;20.00;65.60
40636;DHT22;26642;55.766;37.828;2023-09-12T19:50:00;19.90;65.70
40636;DHT22;26642;55.766;37.828;2023-09-12T19:52:26;19.90;65.10
40636;DHT22;26642;55.766;37.828;2023-09-12T19:54:52;19.90;65.10
40636;DHT22;26642;55.766;37.828;2023-09-12T19:57:18;19.90;65.00
40636;DHT22;26642;55.766;37.828;2023-09-12T19:59:46;19.90;65.00
40636;DHT22;26642;55.766;37.828;2023-09-12T20:02:12;19.90;65.00
40636;DHT22;26642;55.766;37.828;2023-09-12T20:04:39;19.90;65.00
40636;DHT22;26642;55.766;37.828;2023-09-12T20:07:05;19.90;64.70
40636;DHT22;26642;55.766;37.828;2023-09-12T20:09:31;19.90;64.80
40636;DHT22;26642;55.766;37.828;2023-09-12T20:11:57;19.80;64.60
40636;DHT22;26642;55.766;37.828;2023-09-12T20:14:23;19.80;68.40
40636;DHT22;26642;55.766;37.828;2023-09-12T20:16:49;19.80;64.90
40636;DHT22;26642;55.766;37.828;2023-09-12T20:19:15;19.80;66.40
40636;DHT22;26642;55.766;37.828;2023-09-12T20:21:41;19.80;65.70
40636;DHT22;26642;55.766;37.828;2023-09-12T20:24:07;19.70;65.00
40636;DHT22;26642;55.766;37.828;2023-09-12T20:26:34;19.70;64.80
40636;DHT22;26642;55.766;37.828;2023-09-12T20:29:00;19.70;64.90
40636;DHT22;26642;55.766;37.828;2023-09-12T20:31:26;19.70;64.80
40636;DHT22;26642;55.766;37.828;2023-09-12T20:33:52;19.60;64.40
40636;DHT22;26642;55.766;37.828;2023-09-12T20:36:20;19.60;64.90
40636;DHT22;26642;55.766;37.828;2023-09-12T20:38:48;19.60;65.20
40636;DHT22;26642;55.766;37.828;2023-09-12T20:41:15;19.60;65.40
40636;DHT22;26642;55.766;37.828;2023-09-12T20:43:41;19.50;65.50
40636;DHT22;26642;55.766;37.828;2023-09-12T20:46:07;19.60;65.60
40636;DHT22;26642;55.766;37.828;2023-09-12T20:48:38;19.50;65.40
40636;DHT22;26642;55.766;37.828;2023-09-12T20:51:11;19.50;65.40
40636;DHT22;26642;55.766;37.828;2023-09-12T20:53:37;19.50;65.50
40636;DHT22;26642;55.766;37.828;2023-09-12T20:56:04;19.50;65.60
40636;DHT22;26642;55.766;37.828;2023-09-12T20:58:30;19.40;65.70
40636;DHT22;26642;55.766;37.828;2023-09-12T21:00:56;19.40;65.80
40636;DHT22;26642;55.766;37.828;2023-09-12T21:03:22;19.40;66.00
40636;DHT22;26642;55.766;37.828;2023-09-12T21:05:48;19.40;66.10
40636;DHT22;26642;55.766;37.828;2023-09-12T21:08:14;19.40;66.20
40636;DHT22;26642;55.766;37.828;2023-09-12T21:10:40;19.40;66.50
40636;DHT22;26642;55.766;37.828;2023-09-12T21:13:06;19.30;66.70
40636;DHT22;26642;55.766;37.828;2023-09-12T21:15:32;19.30;66.80
40636;DHT22;26642;55.766;37.828;2023-09-12T21:17:58;19.30;66.90
40636;DHT22;26642;55.766;37.828;2023-09-12T21:20:24;19.30;67.00
40636;DHT22;26642;55.766;37.828;2023-09-12T21:22:50;19.30;66.90
40636;DHT22;26642;55.766;37.828;2023-09-12T21:25:16;19.30;67.00
40636;DHT22;26642;55.766;37.828;2023-09-12T21:27:42;19.30;67.00
40636;DHT22;26642;55.766;37.828;2023-09-12T21:30:08;19.20;67.10
40636;DHT22;26642;55.766;37.828;2023-09-12T21:32:35;19.20;67.30
40636;DHT22;26642;55.766;37.828;2023-09-12T21:35:14;19.20;67.40
40636;DHT22;26642;55.766;37.828;2023-09-12T21:37:41;19.20;67.40
40636;DHT22;26642;55.766;37.828;2023-09-12T21:40:09;19.10;67.50
40636;DHT22;26642;55.766;37.828;2023-09-12T21:42:36;19.10;67.70
40636;DHT22;26642;55.766;37.828;2023-09-12T21:45:02;19.10;67.70
